sensor_id;sensor_type;location;lat;lon;timestamp;temperature;humidity
60701;DHT22;46541;49.894;10.886;2022-09-06T00:00:57;19.70;99.90
60701;DHT22;46541;49.894;10.886;2022-09-06T00:03:24;19.60;99.90
60701;DHT22;46541;49.894;10.886;2022-09-06T00:05:53;19.70;99.90
60701;DHT22;46541;49.894;10.886;2022-09-06T00:08:20;19.70;99.90
60701;DHT22;46541;49.894;10.886;2022-09-06T00:10:54;19.60;99.90
60701;DHT22;46541;49.894;10.886;2022-09-06T00:13:26;19.60;99.90
60701;DHT22;46541;49.894;10.886;2022-09-06T00:15:53;19.70;99.90
60701;DHT22;46541;49.894;10.886;2022-09-06T00:18:20;19.60;99.90
60701;DHT22;46541;49.894;10.886;2022-09-06T00:20:47;19.60;99.90
60701;DHT22;46541;49.894;10.886;2022-09-06T00:23:14;19.60;99.90
60701;DHT22;46541;49.894;10.886;2022-09-06T00:25:41;19.50;99.90
60701;DHT22;46541;49.894;10.886;2022-09-06T00:28:07;19.50;99.90
60701;DHT22;46541;49.894;10.886;2022-09-06T00:30:34;19.50;99.90
60701;DHT22;46541;49.894;10.886;2022-09-06T00:33:01;19.50;99.90
60701;DHT22;46541;49.894;10.886;2022-09-06T00:35:28;19.50;99.90
60701;DHT22;46541;49.894;10.886;2022-09-06T00:37:59;19.40;99.90
60701;DHT22;46541;49.894;10.886;2022-09-06T00:40:28;19.40;99.90
60701;DHT22;46541;49.894;10.886;2022-09-06T00:42:56;19.40;99.90
60701;DHT22;46541;49.894;10.886;2022-09-06T00:45:24;19.30;99.90
60701;DHT22;46541;49.894;10.886;2022-09-06T00:47:52;19.30;99.90
60701;DHT22;46541;49.894;10.886;2022-09-06T00:50:20;19.30;99.90
60701;DHT22;46541;49.894;10.886;2022-09-06T00:52:50;19.30;99.90
60701;DHT22;46541;49.894;10.886;2022-09-06T00:55:19;19.20;99.90
60701;DHT22;46541;49.894;10.886;2022-09-06T00:57:47;19.20;99.90
60701;DHT22;46541;49.894;10.886;2022-09-06T01:00:18;19.20;99.90
60701;DHT22;46541;49.894;10.886;2022-09-06T01:02:46;19.10;99.90
60701;DHT22;46541;49.894;10.886;2022-09-06T01:05:13;19.10;99.90
60701;DHT22;46541;49.894;10.886;2022-09-06T01:31:29;19.00;99.90
60701;DHT22;46541;49.894;10.886;2022-09-06T01:36:40;19.00;99.90
60701;DHT22;46541;49.894;10.886;2022-09-06T01:39:31;19.00;99.90
60701;DHT22;46541;49.894;10.886;2022-09-06T01:42:04;18.90;99.90
60701;DHT22;46541;49.894;10.886;2022-09-06T01:44:32;18.90;99.90
60701;DHT22;46541;49.894;10.886;2022-09-06T02:01:12;18.80;99.90
60701;DHT22;46541;49.894;10.886;2022-09-06T02:04:02;18.80;99.90
60701;DHT22;46541;49.894;10.886;2022-09-06T02:06:49;18.80;99.90
60701;DHT22;46541;49.894;10.886;2022-09-06T02:09:22;18.80;99.90
60701;DHT22;46541;49.894;10.886;2022-09-06T02:11:53;18.70;99.90
60701;DHT22;46541;49.894;10.886;2022-09-06T02:14:39;18.70;99.90
60701;DHT22;46541;49.894;10.886;2022-09-06T02:17:08;18.70;99.90
60701;DHT22;46541;49.894;10.886;2022-09-06T02:19:57;18.70;99.90
60701;DHT22;46541;49.894;10.886;2022-09-06T02:22:28;18.70;99.90
60701;DHT22;46541;49.894;10.886;2022-09-06T02:24:57;18.70;99.90
60701;DHT22;46541;49.894;10.886;2022-09-06T02:27:26;18.70;99.90
60701;DHT22;46541;49.894;10.886;2022-09-06T02:29:53;18.70;99.90
60701;DHT22;46541;49.894;10.886;2022-09-06T02:32:24;18.60;99.90
60701;DHT22;46541;49.894;10.886;2022-09-06T02:34:54;18.60;99.90
60701;DHT22;46541;49.894;10.886;2022-09-06T02:37:24;18.60;99.90
60701;DHT22;46541;49.894;10.886;2022-09-06T02:39:53;18.50;99.90
60701;DHT22;46541;49.894;10.886;2022-09-06T02:42:22;18.50;99.90
60701;DHT22;46541;49.894;10.886;2022-09-06T02:44:49;18.40;99.90
60701;DHT22;46541;49.894;10.886;2022-09-06T02:47:16;18.50;99.90
60701;DHT22;46541;49.894;10.886;2022-09-06T02:49:43;18.40;99.90
60701;DHT22;46541;49.894;10.886;2022-09-06T02:52:10;18.40;99.90
60701;DHT22;46541;49.894;10.886;2022-09-06T02:54:37;18.30;99.90
60701;DHT22;46541;49.894;10.886;2022-09-06T02:57:04;18.30;99.90
60701;DHT22;46541;49.894;10.886;2022-09-06T02:59:31;18.30;99.90
60701;DHT22;46541;49.894;10.886;2022-09-06T03:01:58;18.20;99.90
60701;DHT22;46541;49.894;10.886;2022-09-06T03:04:25;18.20;99.90
60701;DHT22;46541;49.894;10.886;2022-09-06T03:06:52;18.20;99.90
60701;DHT22;46541;49.894;10.886;2022-09-06T03:09:19;18.10;99.90
60701;DHT22;46541;49.894;10.886;2022-09-06T03:11:46;18.10;99.90
60701;DHT22;46541;49.894;10.886;2022-09-06T03:14:13;18.10;99.90
60701;DHT22;46541;49.894;10.886;2022-09-06T03:16:42;18.10;99.90
60701;DHT22;46541;49.894;10.886;2022-09-06T03:19:09;18.00;99.90
60701;DHT22;46541;49.894;10.886;2022-09-06T03:21:35;18.00;99.90
60701;DHT22;46541;49.894;10.886;2022-09-06T03:24:02;18.00;99.90
60701;DHT22;46541;49.894;10.886;2022-09-06T03:26:29;18.00;99.90
60701;DHT22;46541;49.894;10.886;2022-09-06T03:28:56;18.00;99.90
60701;DHT22;46541;49.894;10.886;2022-09-06T03:31:23;18.00;99.90
60701;DHT22;46541;49.894;10.886;2022-09-06T03:33:50;18.10;99.90
60701;DHT22;46541;49.894;10.886;2022-09-06T03:36:17;18.10;99.90
60701;DHT22;46541;49.894;10.886;2022-09-06T03:38:43;18.00;99.90
60701;DHT22;46541;49.894;10.886;2022-09-06T03:41:10;18.00;99.90
60701;DHT22;46541;49.894;10.886;2022-09-06T03:43:37;18.00;99.90
60701;DHT22;46541;49.894;10.886;2022-09-06T03:46:04;18.00;99.90
60701;DHT22;46541;49.894;10.886;2022-09-06T03:48:31;18.00;99.90
60701;DHT22;46541;49.894;10.886;2022-09-06T03:50:58;18.10;99.90
60701;DHT22;46541;49.894;10.886;2022-09-06T03:53:27;18.10;99.90
60701;DHT22;46541;49.894;10.886;2022-09-06T03:55:55;18.00;99.90
60701;DHT22;46541;49.894;10.886;2022-09-06T03:58:24;18.00;99.90
60701;DHT22;46541;49.894;10.886;2022-09-06T04:01:09;18.00;99.90
60701;DHT22;46541;49.894;10.886;2022-09-06T04:03:37;18.00;99.90
60701;DHT22;46541;49.894;10.886;2022-09-06T04:06:04;18.00;99.90
60701;DHT22;46541;49.894;10.886;2022-09-06T04:08:32;18.00;99.90
60701;DHT22;46541;49.894;10.886;2022-09-06T04:10:59;18.00;99.90
60701;DHT22;46541;49.894;10.886;2022-09-06T04:13:27;18.00;99.90
60701;DHT22;46541;49.894;10.886;2022-09-06T04:15:54;18.00;99.90
60701;DHT22;46541;49.894;10.886;2022-09-06T04:18:21;18.00;99.90
60701;DHT22;46541;49.894;10.886;2022-09-06T04:20:50;18.00;99.90
60701;DHT22;46541;49.894;10.886;2022-09-06T04:23:18;17.90;99.90
60701;DHT22;46541;49.894;10.886;2022-09-06T04:25:49;17.90;99.90
60701;DHT22;46541;49.894;10.886;2022-09-06T04:28:17;17.80;99.90
60701;DHT22;46541;49.894;10.886;2022-09-06T04:30:45;17.80;99.90
60701;DHT22;46541;49.894;10.886;2022-09-06T04:33:17;17.80;99.90
60701;DHT22;46541;49.894;10.886;2022-09-06T04:35:48;17.90;99.90
60701;DHT22;46541;49.894;10.886;2022-09-06T04:38:15;17.80;99.90
60701;DHT22;46541;49.894;10.886;2022-09-06T04:40:42;17.90;99.90
60701;DHT22;46541;49.894;10.886;2022-09-06T04:43:09;17.90;99.90
60701;DHT22;46541;49.894;10.886;2022-09-06T04:45:36;17.90;99.90
60701;DHT22;46541;49.894;10.886;2022-09-06T04:48:03;17.90;99.90
60701;DHT22;46541;49.894;10.886;2022-09-06T04:50:30;17.90;99.90
60701;DHT22;46541;49.894;10.886;2022-09-06T04:52:57;17.90;99.90
60701;DHT22;46541;49.894;10.886;2022-09-06T04:55:24;17.90;99.90
60701;DHT22;46541;49.894;10.886;2022-09-06T04:57:51;17.90;99.90
60701;DHT22;46541;49.894;10.886;2022-09-06T05:00:18;17.90;99.90
60701;DHT22;46541;49.894;10.886;2022-09-06T05:02:45;17.90;99.90
60701;DHT22;46541;49.894;10.886;2022-09-06T05:05:12;17.90;99.90
60701;DHT22;46541;49.894;10.886;2022-09-06T05:07:39;17.90;99.90
60701;DHT22;46541;49.894;10.886;2022-09-06T05:10:06;18.00;99.90
60701;DHT22;46541;49.894;10.886;2022-09-06T05:12:32;18.00;99.90
60701;DHT22;46541;49.894;10.886;2022-09-06T05:14:59;18.00;99.90
60701;DHT22;46541;49.894;10.886;2022-09-06T05:17:26;18.00;99.90
60701;DHT22;46541;49.894;10.886;2022-09-06T05:19:53;18.10;99.90
60701;DHT22;46541;49.894;10.886;2022-09-06T05:22:19;18.10;99.90
60701;DHT22;46541;49.894;10.886;2022-09-06T05:24:46;18.10;99.90
60701;DHT22;46541;49.894;10.886;2022-09-06T05:27:13;18.20;99.90
60701;DHT22;46541;49.894;10.886;2022-09-06T05:29:41;18.30;99.90
60701;DHT22;46541;49.894;10.886;2022-09-06T05:32:07;18.30;99.90
60701;DHT22;46541;49.894;10.886;2022-09-06T05:34:34;18.30;99.90
60701;DHT22;46541;49.894;10.886;2022-09-06T05:37:01;18.30;99.90
60701;DHT22;46541;49.894;10.886;2022-09-06T05:39:28;18.30;99.90
60701;DHT22;46541;49.894;10.886;2022-09-06T05:41:54;18.30;99.90
60701;DHT22;46541;49.894;10.886;2022-09-06T05:44:21;18.30;99.90
60701;DHT22;46541;49.894;10.886;2022-09-06T05:46:48;18.40;99.90
60701;DHT22;46541;49.894;10.886;2022-09-06T05:49:15;18.40;99.90
60701;DHT22;46541;49.894;10.886;2022-09-06T05:51:42;18.40;99.90
60701;DHT22;46541;49.894;10.886;2022-09-06T05:54:12;18.50;99.90
60701;DHT22;46541;49.894;10.886;2022-09-06T05:56:38;18.50;99.90
60701;DHT22;46541;49.894;10.886;2022-09-06T05:59:05;18.50;99.90
60701;DHT22;46541;49.894;10.886;2022-09-06T06:01:32;18.60;99.90
60701;DHT22;46541;49.894;10.886;2022-09-06T06:04:03;18.60;99.90
60701;DHT22;46541;49.894;10.886;2022-09-06T06:06:32;18.70;99.90
60701;DHT22;46541;49.894;10.886;2022-09-06T06:08:59;18.80;99.90
60701;DHT22;46541;49.894;10.886;2022-09-06T06:11:27;18.90;99.90
60701;DHT22;46541;49.894;10.886;2022-09-06T06:13:53;19.10;99.90
60701;DHT22;46541;49.894;10.886;2022-09-06T06:16:21;19.20;99.90
60701;DHT22;46541;49.894;10.886;2022-09-06T06:18:48;19.30;99.90
60701;DHT22;46541;49.894;10.886;2022-09-06T06:21:24;19.50;99.90
60701;DHT22;46541;49.894;10.886;2022-09-06T06:23:58;19.50;99.90
60701;DHT22;46541;49.894;10.886;2022-09-06T06:26:27;19.60;99.90
60701;DHT22;46541;49.894;10.886;2022-09-06T06:28:54;19.70;99.90
60701;DHT22;46541;49.894;10.886;2022-09-06T06:31:23;19.70;99.90
60701;DHT22;46541;49.894;10.886;2022-09-06T06:33:50;19.80;99.90
60701;DHT22;46541;49.894;10.886;2022-09-06T06:36:18;19.80;99.90
60701;DHT22;46541;49.894;10.886;2022-09-06T06:38:48;19.80;99.90
60701;DHT22;46541;49.894;10.886;2022-09-06T06:41:20;19.90;99.90
60701;DHT22;46541;49.894;10.886;2022-09-06T06:43:54;19.90;99.90
60701;DHT22;46541;49.894;10.886;2022-09-06T06:46:26;20.00;99.90
60701;DHT22;46541;49.894;10.886;2022-09-06T06:48:53;20.00;99.90
60701;DHT22;46541;49.894;10.886;2022-09-06T06:51:23;20.10;99.90
60701;DHT22;46541;49.894;10.886;2022-09-06T06:53:51;20.10;99.90
60701;DHT22;46541;49.894;10.886;2022-09-06T06:56:24;20.10;99.90
60701;DHT22;46541;49.894;10.886;2022-09-06T06:58:53;20.10;99.90
60701;DHT22;46541;49.894;10.886;2022-09-06T07:01:21;20.10;99.90
60701;DHT22;46541;49.894;10.886;2022-09-06T07:03:49;20.10;99.90
60701;DHT22;46541;49.894;10.886;2022-09-06T07:06:17;20.10;99.90
60701;DHT22;46541;49.894;10.886;2022-09-06T07:08:45;20.10;99.90
60701;DHT22;46541;49.894;10.886;2022-09-06T07:11:14;20.10;99.90
60701;DHT22;46541;49.894;10.886;2022-09-06T07:13:41;20.10;99.90
60701;DHT22;46541;49.894;10.886;2022-09-06T07:18:42;20.20;99.90
60701;DHT22;46541;49.894;10.886;2022-09-06T07:21:16;20.20;99.90
60701;DHT22;46541;49.894;10.886;2022-09-06T07:24:04;20.30;99.90
60701;DHT22;46541;49.894;10.886;2022-09-06T07:26:35;20.40;99.90
60701;DHT22;46541;49.894;10.886;2022-09-06T07:29:04;20.50;99.90
60701;DHT22;46541;49.894;10.886;2022-09-06T07:31:32;20.60;99.90
60701;DHT22;46541;49.894;10.886;2022-09-06T07:34:19;20.70;99.90
60701;DHT22;46541;49.894;10.886;2022-09-06T07:36:46;20.80;99.90
60701;DHT22;46541;49.894;10.886;2022-09-06T07:39:14;20.90;99.90
60701;DHT22;46541;49.894;10.886;2022-09-06T07:41:41;21.00;99.90
60701;DHT22;46541;49.894;10.886;2022-09-06T07:44:08;21.00;99.90
60701;DHT22;46541;49.894;10.886;2022-09-06T07:46:36;21.10;99.90
60701;DHT22;46541;49.894;10.886;2022-09-06T07:49:04;21.10;99.90
60701;DHT22;46541;49.894;10.886;2022-09-06T07:51:31;21.30;99.90
60701;DHT22;46541;49.894;10.886;2022-09-06T07:53:58;21.40;99.90
60701;DHT22;46541;49.894;10.886;2022-09-06T07:56:45;21.50;99.90
60701;DHT22;46541;49.894;10.886;2022-09-06T07:59:12;21.60;99.90
60701;DHT22;46541;49.894;10.886;2022-09-06T08:01:39;21.70;99.90
60701;DHT22;46541;49.894;10.886;2022-09-06T08:04:11;21.70;99.90
60701;DHT22;46541;49.894;10.886;2022-09-06T08:06:43;21.80;99.90
60701;DHT22;46541;49.894;10.886;2022-09-06T08:09:30;21.90;99.90
60701;DHT22;46541;49.894;10.886;2022-09-06T08:11:58;22.10;99.90
60701;DHT22;46541;49.894;10.886;2022-09-06T08:14:25;22.30;99.90
60701;DHT22;46541;49.894;10.886;2022-09-06T08:16:52;22.50;99.90
60701;DHT22;46541;49.894;10.886;2022-09-06T08:19:18;22.60;99.90
60701;DHT22;46541;49.894;10.886;2022-09-06T08:21:45;22.70;99.90
60701;DHT22;46541;49.894;10.886;2022-09-06T08:24:12;23.00;99.90
60701;DHT22;46541;49.894;10.886;2022-09-06T08:26:39;23.00;99.90
60701;DHT22;46541;49.894;10.886;2022-09-06T08:29:08;23.00;99.90
60701;DHT22;46541;49.894;10.886;2022-09-06T08:31:38;23.10;99.90
60701;DHT22;46541;49.894;10.886;2022-09-06T08:34:05;23.30;99.90
60701;DHT22;46541;49.894;10.886;2022-09-06T08:36:33;23.50;99.90
60701;DHT22;46541;49.894;10.886;2022-09-06T08:39:02;23.70;99.90
60701;DHT22;46541;49.894;10.886;2022-09-06T08:44:22;24.40;99.90
60701;DHT22;46541;49.894;10.886;2022-09-06T08:47:15;24.60;99.90
60701;DHT22;46541;49.894;10.886;2022-09-06T08:54:57;24.60;99.90
60701;DHT22;46541;49.894;10.886;2022-09-06T09:00:10;24.60;99.90
60701;DHT22;46541;49.894;10.886;2022-09-06T09:02:46;24.60;99.90
60701;DHT22;46541;49.894;10.886;2022-09-06T09:05:25;24.60;99.90
60701;DHT22;46541;49.894;10.886;2022-09-06T09:10:33;24.50;99.90
60701;DHT22;46541;49.894;10.886;2022-09-06T09:13:07;24.40;99.90
60701;DHT22;46541;49.894;10.886;2022-09-06T09:15:35;24.40;99.90
60701;DHT22;46541;49.894;10.886;2022-09-06T09:18:06;24.50;99.90
60701;DHT22;46541;49.894;10.886;2022-09-06T09:20:33;24.60;99.90
60701;DHT22;46541;49.894;10.886;2022-09-06T09:23:00;24.70;99.90
60701;DHT22;46541;49.894;10.886;2022-09-06T09:25:30;24.80;99.90
60701;DHT22;46541;49.894;10.886;2022-09-06T09:27:59;24.90;99.90
60701;DHT22;46541;49.894;10.886;2022-09-06T09:30:43;25.00;99.90
60701;DHT22;46541;49.894;10.886;2022-09-06T09:33:35;25.00;99.90
60701;DHT22;46541;49.894;10.886;2022-09-06T09:36:11;25.10;99.90
60701;DHT22;46541;49.894;10.886;2022-09-06T09:38:44;25.10;99.90
60701;DHT22;46541;49.894;10.886;2022-09-06T09:41:31;25.10;99.90
60701;DHT22;46541;49.894;10.886;2022-09-06T09:44:04;25.30;99.90
60701;DHT22;46541;49.894;10.886;2022-09-06T09:46:33;25.50;99.90
60701;DHT22;46541;49.894;10.886;2022-09-06T09:51:32;25.70;99.90
60701;DHT22;46541;49.894;10.886;2022-09-06T09:54:02;25.90;99.70
60701;DHT22;46541;49.894;10.886;2022-09-06T09:59:07;26.20;98.40
60701;DHT22;46541;49.894;10.886;2022-09-06T10:01:41;26.20;98.40
60701;DHT22;46541;49.894;10.886;2022-09-06T10:04:11;26.30;98.20
60701;DHT22;46541;49.894;10.886;2022-09-06T10:07:22;26.40;98.50
60701;DHT22;46541;49.894;10.886;2022-09-06T10:10:03;26.50;98.30
60701;DHT22;46541;49.894;10.886;2022-09-06T10:12:38;26.50;97.80
60701;DHT22;46541;49.894;10.886;2022-09-06T10:15:07;26.50;97.60
60701;DHT22;46541;49.894;10.886;2022-09-06T10:17:36;26.90;97.40
60701;DHT22;46541;49.894;10.886;2022-09-06T10:20:08;27.10;97.30
60701;DHT22;46541;49.894;10.886;2022-09-06T10:28:20;27.00;96.80
60701;DHT22;46541;49.894;10.886;2022-09-06T10:31:17;26.90;96.90
60701;DHT22;46541;49.894;10.886;2022-09-06T10:36:20;26.50;96.50
60701;DHT22;46541;49.894;10.886;2022-09-06T10:38:59;26.40;96.70
60701;DHT22;46541;49.894;10.886;2022-09-06T10:41:31;26.40;96.90
60701;DHT22;46541;49.894;10.886;2022-09-06T10:46:34;26.30;96.40
60701;DHT22;46541;49.894;10.886;2022-09-06T10:49:01;26.20;96.40
60701;DHT22;46541;49.894;10.886;2022-09-06T10:51:47;26.10;96.70
60701;DHT22;46541;49.894;10.886;2022-09-06T10:54:23;26.20;96.60
60701;DHT22;46541;49.894;10.886;2022-09-06T10:56:57;26.30;96.40
60701;DHT22;46541;49.894;10.886;2022-09-06T10:59:29;26.30;96.00
60701;DHT22;46541;49.894;10.886;2022-09-06T11:05:00;26.70;96.10
60701;DHT22;46541;49.894;10.886;2022-09-06T11:07:59;27.10;95.20
60701;DHT22;46541;49.894;10.886;2022-09-06T11:10:48;27.70;94.20
60701;DHT22;46541;49.894;10.886;2022-09-06T11:13:18;28.10;93.50
60701;DHT22;46541;49.894;10.886;2022-09-06T11:23:47;29.70;90.30
60701;DHT22;46541;49.894;10.886;2022-09-06T11:29:25;29.20;89.20
60701;DHT22;46541;49.894;10.886;2022-09-06T11:31:54;28.90;86.90
60701;DHT22;46541;49.894;10.886;2022-09-06T11:34:50;28.90;86.30
60701;DHT22;46541;49.894;10.886;2022-09-06T11:37:41;28.60;85.20
60701;DHT22;46541;49.894;10.886;2022-09-06T11:40:22;28.60;85.70
60701;DHT22;46541;49.894;10.886;2022-09-06T11:46:00;28.00;85.60
60701;DHT22;46541;49.894;10.886;2022-09-06T11:48:32;28.00;85.70
60701;DHT22;46541;49.894;10.886;2022-09-06T11:51:04;28.00;85.00
60701;DHT22;46541;49.894;10.886;2022-09-06T11:56:28;28.00;83.50
60701;DHT22;46541;49.894;10.886;2022-09-06T12:01:37;28.20;84.10
60701;DHT22;46541;49.894;10.886;2022-09-06T12:04:06;28.30;83.60
60701;DHT22;46541;49.894;10.886;2022-09-06T12:06:40;28.30;83.90
60701;DHT22;46541;49.894;10.886;2022-09-06T12:11:57;28.00;84.80
60701;DHT22;46541;49.894;10.886;2022-09-06T12:14:42;27.90;85.40
60701;DHT22;46541;49.894;10.886;2022-09-06T12:25:19;27.90;84.50
60701;DHT22;46541;49.894;10.886;2022-09-06T12:27:52;27.90;84.60
60701;DHT22;46541;49.894;10.886;2022-09-06T12:30:49;28.00;85.40
60701;DHT22;46541;49.894;10.886;2022-09-06T12:33:22;27.90;84.00
60701;DHT22;46541;49.894;10.886;2022-09-06T12:35:50;28.00;84.40
60701;DHT22;46541;49.894;10.886;2022-09-06T12:38:24;28.00;83.30
60701;DHT22;46541;49.894;10.886;2022-09-06T12:40:52;28.00;83.10
60701;DHT22;46541;49.894;10.886;2022-09-06T12:43:24;28.00;83.60
60701;DHT22;46541;49.894;10.886;2022-09-06T12:45:52;28.20;82.80
60701;DHT22;46541;49.894;10.886;2022-09-06T12:48:30;28.20;82.90
60701;DHT22;46541;49.894;10.886;2022-09-06T12:51:23;28.10;82.90
60701;DHT22;46541;49.894;10.886;2022-09-06T12:53:51;27.90;82.70
60701;DHT22;46541;49.894;10.886;2022-09-06T12:56:20;28.00;82.90
60701;DHT22;46541;49.894;10.886;2022-09-06T12:58:47;27.90;82.10
60701;DHT22;46541;49.894;10.886;2022-09-06T13:03:46;27.90;82.20
60701;DHT22;46541;49.894;10.886;2022-09-06T13:06:21;28.00;83.50
60701;DHT22;46541;49.894;10.886;2022-09-06T13:08:54;27.90;82.70
60701;DHT22;46541;49.894;10.886;2022-09-06T13:11:35;27.90;82.40
60701;DHT22;46541;49.894;10.886;2022-09-06T13:14:09;27.90;82.00
60701;DHT22;46541;49.894;10.886;2022-09-06T13:16:48;27.90;80.60
60701;DHT22;46541;49.894;10.886;2022-09-06T13:19:30;27.80;80.20
60701;DHT22;46541;49.894;10.886;2022-09-06T13:21:58;27.70;80.90
60701;DHT22;46541;49.894;10.886;2022-09-06T13:24:46;27.50;81.10
60701;DHT22;46541;49.894;10.886;2022-09-06T13:27:46;27.40;81.40
60701;DHT22;46541;49.894;10.886;2022-09-06T13:33:05;27.30;83.50
60701;DHT22;46541;49.894;10.886;2022-09-06T13:35:35;27.20;83.00
60701;DHT22;46541;49.894;10.886;2022-09-06T13:38:31;27.20;83.20
60701;DHT22;46541;49.894;10.886;2022-09-06T13:40:59;27.00;83.10
60701;DHT22;46541;49.894;10.886;2022-09-06T13:43:44;26.90;83.30
60701;DHT22;46541;49.894;10.886;2022-09-06T13:46:13;26.80;83.30
60701;DHT22;46541;49.894;10.886;2022-09-06T13:48:40;26.80;83.70
60701;DHT22;46541;49.894;10.886;2022-09-06T13:51:10;26.70;84.80
60701;DHT22;46541;49.894;10.886;2022-09-06T13:53:37;26.60;85.50
60701;DHT22;46541;49.894;10.886;2022-09-06T13:56:03;26.50;85.70
60701;DHT22;46541;49.894;10.886;2022-09-06T13:58:34;26.50;85.60
60701;DHT22;46541;49.894;10.886;2022-09-06T14:01:02;26.40;86.10
60701;DHT22;46541;49.894;10.886;2022-09-06T14:03:30;26.30;85.20
60701;DHT22;46541;49.894;10.886;2022-09-06T14:05:58;26.20;84.90
60701;DHT22;46541;49.894;10.886;2022-09-06T14:08:29;26.30;84.90
60701;DHT22;46541;49.894;10.886;2022-09-06T14:11:16;26.20;85.40
60701;DHT22;46541;49.894;10.886;2022-09-06T14:13:43;26.20;85.40
60701;DHT22;46541;49.894;10.886;2022-09-06T14:16:10;26.10;85.90
60701;DHT22;46541;49.894;10.886;2022-09-06T14:18:37;26.10;86.30
60701;DHT22;46541;49.894;10.886;2022-09-06T14:21:04;26.10;85.70
60701;DHT22;46541;49.894;10.886;2022-09-06T14:23:31;26.10;85.90
60701;DHT22;46541;49.894;10.886;2022-09-06T14:26:00;26.10;86.10
60701;DHT22;46541;49.894;10.886;2022-09-06T14:28:29;26.10;85.90
60701;DHT22;46541;49.894;10.886;2022-09-06T14:30:56;26.10;85.90
60701;DHT22;46541;49.894;10.886;2022-09-06T14:33:23;26.10;85.30
60701;DHT22;46541;49.894;10.886;2022-09-06T14:35:51;26.10;85.90
60701;DHT22;46541;49.894;10.886;2022-09-06T14:38:17;26.20;85.70
60701;DHT22;46541;49.894;10.886;2022-09-06T14:40:45;26.40;85.20
60701;DHT22;46541;49.894;10.886;2022-09-06T14:43:11;26.50;84.70
60701;DHT22;46541;49.894;10.886;2022-09-06T14:45:38;26.60;84.70
60701;DHT22;46541;49.894;10.886;2022-09-06T14:48:05;26.60;84.90
60701;DHT22;46541;49.894;10.886;2022-09-06T14:50:32;26.60;84.60
60701;DHT22;46541;49.894;10.886;2022-09-06T14:52:59;26.70;84.40
60701;DHT22;46541;49.894;10.886;2022-09-06T14:55:26;26.60;84.40
60701;DHT22;46541;49.894;10.886;2022-09-06T14:57:53;26.70;83.70
60701;DHT22;46541;49.894;10.886;2022-09-06T15:00:20;26.70;83.60
60701;DHT22;46541;49.894;10.886;2022-09-06T15:02:48;26.80;83.70
60701;DHT22;46541;49.894;10.886;2022-09-06T15:05:15;26.90;84.70
60701;DHT22;46541;49.894;10.886;2022-09-06T15:07:42;27.00;83.40
60701;DHT22;46541;49.894;10.886;2022-09-06T15:10:08;27.10;82.10
60701;DHT22;46541;49.894;10.886;2022-09-06T15:12:36;27.10;82.40
60701;DHT22;46541;49.894;10.886;2022-09-06T15:15:04;27.30;81.90
60701;DHT22;46541;49.894;10.886;2022-09-06T15:17:31;27.40;80.60
60701;DHT22;46541;49.894;10.886;2022-09-06T15:19:59;27.40;80.60
60701;DHT22;46541;49.894;10.886;2022-09-06T15:22:26;27.40;80.40
60701;DHT22;46541;49.894;10.886;2022-09-06T15:24:53;27.40;80.60
60701;DHT22;46541;49.894;10.886;2022-09-06T15:27:21;27.30;80.60
60701;DHT22;46541;49.894;10.886;2022-09-06T15:29:48;27.30;80.80
60701;DHT22;46541;49.894;10.886;2022-09-06T15:32:15;27.30;81.20
60701;DHT22;46541;49.894;10.886;2022-09-06T15:34:42;27.20;80.60
60701;DHT22;46541;49.894;10.886;2022-09-06T15:37:09;27.10;80.80
60701;DHT22;46541;49.894;10.886;2022-09-06T15:39:36;27.00;80.70
60701;DHT22;46541;49.894;10.886;2022-09-06T15:42:03;27.00;79.90
60701;DHT22;46541;49.894;10.886;2022-09-06T15:44:30;26.90;79.60
60701;DHT22;46541;49.894;10.886;2022-09-06T15:46:58;26.80;79.30
60701;DHT22;46541;49.894;10.886;2022-09-06T15:49:27;26.70;78.90
60701;DHT22;46541;49.894;10.886;2022-09-06T15:51:56;26.70;79.80
60701;DHT22;46541;49.894;10.886;2022-09-06T15:54:23;26.60;78.90
60701;DHT22;46541;49.894;10.886;2022-09-06T15:57:09;26.60;78.40
60701;DHT22;46541;49.894;10.886;2022-09-06T15:59:37;26.60;79.50
60701;DHT22;46541;49.894;10.886;2022-09-06T16:02:04;26.60;79.70
60701;DHT22;46541;49.894;10.886;2022-09-06T16:04:31;26.60;79.50
60701;DHT22;46541;49.894;10.886;2022-09-06T16:06:57;26.50;79.50
60701;DHT22;46541;49.894;10.886;2022-09-06T16:09:24;26.50;79.30
60701;DHT22;46541;49.894;10.886;2022-09-06T16:11:51;26.50;78.70
60701;DHT22;46541;49.894;10.886;2022-09-06T16:14:18;26.40;78.40
60701;DHT22;46541;49.894;10.886;2022-09-06T16:16:45;26.40;77.50
60701;DHT22;46541;49.894;10.886;2022-09-06T16:19:13;26.40;77.60
60701;DHT22;46541;49.894;10.886;2022-09-06T16:21:41;26.40;78.90
60701;DHT22;46541;49.894;10.886;2022-09-06T16:24:10;26.30;78.70
60701;DHT22;46541;49.894;10.886;2022-09-06T16:26:39;26.30;77.50
60701;DHT22;46541;49.894;10.886;2022-09-06T16:29:08;26.20;77.70
60701;DHT22;46541;49.894;10.886;2022-09-06T16:31:36;26.20;78.30
60701;DHT22;46541;49.894;10.886;2022-09-06T16:34:07;26.20;77.80
60701;DHT22;46541;49.894;10.886;2022-09-06T16:36:35;26.10;78.30
60701;DHT22;46541;49.894;10.886;2022-09-06T16:39:02;26.10;78.50
60701;DHT22;46541;49.894;10.886;2022-09-06T16:41:41;26.00;78.30
60701;DHT22;46541;49.894;10.886;2022-09-06T16:44:10;26.00;76.90
60701;DHT22;46541;49.894;10.886;2022-09-06T16:46:46;26.00;76.00
60701;DHT22;46541;49.894;10.886;2022-09-06T16:49:14;26.00;75.90
60701;DHT22;46541;49.894;10.886;2022-09-06T16:51:46;26.00;76.10
60701;DHT22;46541;49.894;10.886;2022-09-06T16:54:14;25.90;76.40
60701;DHT22;46541;49.894;10.886;2022-09-06T16:56:41;25.80;77.10
60701;DHT22;46541;49.894;10.886;2022-09-06T16:59:09;25.70;75.70
60701;DHT22;46541;49.894;10.886;2022-09-06T17:01:38;25.60;76.20
60701;DHT22;46541;49.894;10.886;2022-09-06T17:04:09;25.60;75.50
60701;DHT22;46541;49.894;10.886;2022-09-06T17:06:36;25.50;77.60
60701;DHT22;46541;49.894;10.886;2022-09-06T17:09:12;25.50;78.60
60701;DHT22;46541;49.894;10.886;2022-09-06T17:11:39;25.40;80.30
60701;DHT22;46541;49.894;10.886;2022-09-06T17:14:06;25.40;82.40
60701;DHT22;46541;49.894;10.886;2022-09-06T17:16:33;25.30;81.60
60701;DHT22;46541;49.894;10.886;2022-09-06T17:19:19;25.30;82.00
60701;DHT22;46541;49.894;10.886;2022-09-06T17:21:46;25.20;82.20
60701;DHT22;46541;49.894;10.886;2022-09-06T17:24:13;25.20;82.00
60701;DHT22;46541;49.894;10.886;2022-09-06T17:26:40;25.10;82.10